Terminal Aerodrome Forecast
Issued by NWS

Home | Current Version | Previous Version | Text Only | Print | Product List | Glossary On
Versions: 1 2 3 4 5 6 7 8 9 10 11 12 13 14 15 16 17 18 19 20 21 22 23 24
000
FTUS41 KPHI 180700 AAA
TAFPNE
TAF AMD
KPNE 180730Z 1808/1906 30013KT P6SM SCT040
     FM181500 30015G24KT P6SM FEW045
     FM182300 29010KT P6SM FEW050=

USA.gov is the U.S. government's official web portal to all federal, state and local government web resources and services.